Aviation Digital Data Service (ADDS)

Output produced by METARs form (1100 UTC 18 June 2019)
found at http://www.aviationweather.gov/metar/data/
 
METAR text: LWSK 181030Z 00000KT 9999 FEW040 26/18 Q1016 NOSIG
Conditions at: LWSK (SKOPJE/PETROVAC , MK) observed 1030 UTC 18 June 2019
Temperature: 26.0°C (79°F)
Dewpoint: 18.0°C (64°F) [RH = 61%]
Pressure (altimeter): 30.00 inches Hg (1016.0 mb)
Winds: calm
Visibility: 6 or more miles (10+ km)
Ceiling: at least 12,000 feet AGL
Clouds: few clouds at 4000 feet AGL
Weather: no significant weather observed at this time

METAR text: LWSK 181000Z 09002KT 9999 FEW033 25/18 Q1016 NOSIG
Conditions at: LWSK (SKOPJE/PETROVAC , MK) observed 1000 UTC 18 June 2019
Temperature: 25.0°C (77°F)
Dewpoint: 18.0°C (64°F) [RH = 65%]
Pressure (altimeter): 30.00 inches Hg (1016.0 mb)
Winds: from the E (90 degrees) at 2 MPH (2 knots; 1.0 m/s)
Visibility: 6 or more miles (10+ km)
Ceiling: at least 12,000 feet AGL
Clouds: few clouds at 3300 feet AGL
Weather: no significant weather observed at this time

METAR text: LWSK 180930Z VRB02KT 9999 FEW033 24/18 Q1017 NOSIG
Conditions at: LWSK (SKOPJE/PETROVAC , MK) observed 0930 UTC 18 June 2019
Temperature: 24.0°C (75°F)
Dewpoint: 18.0°C (64°F) [RH = 69%]
Pressure (altimeter): 30.03 inches Hg (1017.0 mb)
Winds: variable direction winds at 2 MPH (2 knots; 1.0 m/s)
Visibility: 6 or more miles (10+ km)
Ceiling: at least 12,000 feet AGL
Clouds: few clouds at 3300 feet AGL
Weather: no significant weather observed at this time

METAR text: LWSK 180900Z 36002KT 9999 FEW033 23/18 Q1017 NOSIG
Conditions at: LWSK (SKOPJE/PETROVAC , MK) observed 0900 UTC 18 June 2019
Temperature: 23.0°C (73°F)
Dewpoint: 18.0°C (64°F) [RH = 73%]
Pressure (altimeter): 30.03 inches Hg (1017.0 mb)
Winds: from the N (360 degrees) at 2 MPH (2 knots; 1.0 m/s)
Visibility: 6 or more miles (10+ km)
Ceiling: at least 12,000 feet AGL
Clouds: few clouds at 3300 feet AGL
Weather: no significant weather observed at this time

METAR text: LWSK 180830Z 00000KT 9999 FEW010 22/17 Q1017 NOSIG
Conditions at: LWSK (SKOPJE/PETROVAC , MK) observed 0830 UTC 18 June 2019
Temperature: 22.0°C (72°F)
Dewpoint: 17.0°C (63°F) [RH = 73%]
Pressure (altimeter): 30.03 inches Hg (1017.0 mb)
Winds: calm
Visibility: 6 or more miles (10+ km)
Ceiling: at least 12,000 feet AGL
Clouds: few clouds at 1000 feet AGL
Weather: no significant weather observed at this time

METAR text: LWSK 180800Z 13002KT 9999 FEW007 20/18 Q1017 NOSIG
Conditions at: LWSK (SKOPJE/PETROVAC , MK) observed 0800 UTC 18 June 2019
Temperature: 20.0°C (68°F)
Dewpoint: 18.0°C (64°F) [RH = 88%]
Pressure (altimeter): 30.03 inches Hg (1017.0 mb)
Winds: from the SE (130 degrees) at 2 MPH (2 knots; 1.0 m/s)
Visibility: 6 or more miles (10+ km)
Ceiling: at least 12,000 feet AGL
Clouds: few clouds at 700 feet AGL
Weather: no significant weather observed at this time

METAR text: LWSK 180730Z 15002KT 9999 FEW005 SCT030 18/17 Q1017 NOSIG
Conditions at: LWSK (SKOPJE/PETROVAC , MK) observed 0730 UTC 18 June 2019
Temperature: 18.0°C (64°F)
Dewpoint: 17.0°C (63°F) [RH = 94%]
Pressure (altimeter): 30.03 inches Hg (1017.0 mb)
Winds: from the SSE (150 degrees) at 2 MPH (2 knots; 1.0 m/s)
Visibility: 6 or more miles (10+ km)
Ceiling: at least 12,000 feet AGL
Clouds: few clouds at 500 feet AGL
scattered clouds at 3000 feet AGL
Weather: no significant weather observed at this time

METAR text: LWSK 180700Z 22002KT 7000 FEW005 SCT030 BKN100 19/18 Q1018 NOSIG
Conditions at: LWSK (SKOPJE/PETROVAC , MK) observed 0700 UTC 18 June 2019
Temperature: 19.0°C (66°F)
Dewpoint: 18.0°C (64°F) [RH = 94%]
Pressure (altimeter): 30.06 inches Hg (1018.0 mb)
Winds: from the SW (220 degrees) at 2 MPH (2 knots; 1.0 m/s)
Visibility: 4 miles ( 7 km)
Ceiling: 10000 feet AGL
Clouds: few clouds at 500 feet AGL
scattered clouds at 3000 feet AGL
broken clouds at 10000 feet AGL
Weather: no significant weather observed at this time

METAR text: LWSK 180630Z 00000KT 6000 FEW004 SCT030 BKN080 18/18 Q1018 NOSIG
Conditions at: LWSK (SKOPJE/PETROVAC , MK) observed 0630 UTC 18 June 2019
Temperature: 18.0°C (64°F)
Dewpoint: 18.0°C (64°F) [RH = 100%]
Pressure (altimeter): 30.06 inches Hg (1018.0 mb)
Winds: calm
Visibility: 4 miles ( 6 km)
Ceiling: 8000 feet AGL
Clouds: few clouds at 400 feet AGL
scattered clouds at 3000 feet AGL
broken clouds at 8000 feet AGL
Weather: no significant weather observed at this time

METAR text: LWSK 180600Z 04002KT 8000 SCT005 BKN090 18/17 Q1018 NOSIG
Conditions at: LWSK (SKOPJE/PETROVAC , MK) observed 0600 UTC 18 June 2019
Temperature: 18.0°C (64°F)
Dewpoint: 17.0°C (63°F) [RH = 94%]
Pressure (altimeter): 30.06 inches Hg (1018.0 mb)
Winds: from the NE (40 degrees) at 2 MPH (2 knots; 1.0 m/s)
Visibility: 5 miles ( 8 km)
Ceiling: 9000 feet AGL
Clouds: scattered clouds at 500 feet AGL
broken clouds at 9000 feet AGL
Weather: no significant weather observed at this time

METAR text: LWSK 180530Z 31002KT 7000 SCT008 17/16 Q1017 NOSIG
Conditions at: LWSK (SKOPJE/PETROVAC , MK) observed 0530 UTC 18 June 2019
Temperature: 17.0°C (63°F)
Dewpoint: 16.0°C (61°F) [RH = 94%]
Pressure (altimeter): 30.03 inches Hg (1017.0 mb)
Winds: from the NW (310 degrees) at 2 MPH (2 knots; 1.0 m/s)
Visibility: 4 miles ( 7 km)
Ceiling: at least 12,000 feet AGL
Clouds: scattered clouds at 800 feet AGL
Weather: no significant weather observed at this time

METAR text: LWSK 180500Z 29002KT 5000 BR SCT008 17/16 Q1017 NOSIG
Conditions at: LWSK (SKOPJE/PETROVAC , MK) observed 0500 UTC 18 June 2019
Temperature: 17.0°C (63°F)
Dewpoint: 16.0°C (61°F) [RH = 94%]
Pressure (altimeter): 30.03 inches Hg (1017.0 mb)
Winds: from the WNW (290 degrees) at 2 MPH (2 knots; 1.0 m/s)
Visibility: 3 miles ( 5 km)
Ceiling: at least 12,000 feet AGL
Clouds: scattered clouds at 800 feet AGL
Weather: BR  (mist)

METAR text: LWSK 180430Z 00000KT 5000 BR FEW010 17/16 Q1017 NOSIG
Conditions at: LWSK (SKOPJE/PETROVAC , MK) observed 0430 UTC 18 June 2019
Temperature: 17.0°C (63°F)
Dewpoint: 16.0°C (61°F) [RH = 94%]
Pressure (altimeter): 30.03 inches Hg (1017.0 mb)
Winds: calm
Visibility: 3 miles ( 5 km)
Ceiling: at least 12,000 feet AGL
Clouds: few clouds at 1000 feet AGL
Weather: BR  (mist)

METAR text: LWSK 180400Z 00000KT 5000 BR FEW010 17/16 Q1017 NOSIG
Conditions at: LWSK (SKOPJE/PETROVAC , MK) observed 0400 UTC 18 June 2019
Temperature: 17.0°C (63°F)
Dewpoint: 16.0°C (61°F) [RH = 94%]
Pressure (altimeter): 30.03 inches Hg (1017.0 mb)
Winds: calm
Visibility: 3 miles ( 5 km)
Ceiling: at least 12,000 feet AGL
Clouds: few clouds at 1000 feet AGL
Weather: BR  (mist)

METAR text: LWSK 180330Z 13002KT 9999 SCT008 16/15 Q1017 NOSIG
Conditions at: LWSK (SKOPJE/PETROVAC , MK) observed 0330 UTC 18 June 2019
Temperature: 16.0°C (61°F)
Dewpoint: 15.0°C (59°F) [RH = 94%]
Pressure (altimeter): 30.03 inches Hg (1017.0 mb)
Winds: from the SE (130 degrees) at 2 MPH (2 knots; 1.0 m/s)
Visibility: 6 or more miles (10+ km)
Ceiling: at least 12,000 feet AGL
Clouds: scattered clouds at 800 feet AGL
Weather: no significant weather observed at this time

METAR text: LWSK 180300Z 18002KT CAVOK 16/15 Q1017 NOSIG
Conditions at: LWSK (SKOPJE/PETROVAC , MK) observed 0300 UTC 18 June 2019
Temperature: 16.0°C (61°F)
Dewpoint: 15.0°C (59°F) [RH = 94%]
Pressure (altimeter): 30.03 inches Hg (1017.0 mb)
Winds: from the S (180 degrees) at 2 MPH (2 knots; 1.0 m/s)
Visibility: 6 or more miles (10+ km)
Ceiling: ceiling and visibility are OK
Clouds: unknown
Weather: no significant weather observed at this time

METAR text: LWSK 180230Z 00000KT CAVOK 16/15 Q1017 NOSIG
Conditions at: LWSK (SKOPJE/PETROVAC , MK) observed 0230 UTC 18 June 2019
Temperature: 16.0°C (61°F)
Dewpoint: 15.0°C (59°F) [RH = 94%]
Pressure (altimeter): 30.03 inches Hg (1017.0 mb)
Winds: calm
Visibility: 6 or more miles (10+ km)
Ceiling: ceiling and visibility are OK
Clouds: unknown
Weather: no significant weather observed at this time

METAR text: LWSK 180200Z 00000KT CAVOK 16/15 Q1017 NOSIG
Conditions at: LWSK (SKOPJE/PETROVAC , MK) observed 0200 UTC 18 June 2019
Temperature: 16.0°C (61°F)
Dewpoint: 15.0°C (59°F) [RH = 94%]
Pressure (altimeter): 30.03 inches Hg (1017.0 mb)
Winds: calm
Visibility: 6 or more miles (10+ km)
Ceiling: ceiling and visibility are OK
Clouds: unknown
Weather: no significant weather observed at this time

METAR text: LWSK 180130Z 00000KT CAVOK 16/16 Q1016 NOSIG
Conditions at: LWSK (SKOPJE/PETROVAC , MK) observed 0130 UTC 18 June 2019
Temperature: 16.0°C (61°F)
Dewpoint: 16.0°C (61°F) [RH = 100%]
Pressure (altimeter): 30.00 inches Hg (1016.0 mb)
Winds: calm
Visibility: 6 or more miles (10+ km)
Ceiling: ceiling and visibility are OK
Clouds: unknown
Weather: no significant weather observed at this time

METAR text: LWSK 180100Z 00000KT CAVOK 16/16 Q1016 NOSIG
Conditions at: LWSK (SKOPJE/PETROVAC , MK) observed 0100 UTC 18 June 2019
Temperature: 16.0°C (61°F)
Dewpoint: 16.0°C (61°F) [RH = 100%]
Pressure (altimeter): 30.00 inches Hg (1016.0 mb)
Winds: calm
Visibility: 6 or more miles (10+ km)
Ceiling: ceiling and visibility are OK
Clouds: unknown
Weather: no significant weather observed at this time

METAR text: LWSK 180030Z 00000KT CAVOK 16/16 Q1016 NOSIG
Conditions at: LWSK (SKOPJE/PETROVAC , MK) observed 0030 UTC 18 June 2019
Temperature: 16.0°C (61°F)
Dewpoint: 16.0°C (61°F) [RH = 100%]
Pressure (altimeter): 30.00 inches Hg (1016.0 mb)
Winds: calm
Visibility: 6 or more miles (10+ km)
Ceiling: ceiling and visibility are OK
Clouds: unknown
Weather: no significant weather observed at this time

METAR text: LWSK 180000Z 00000KT CAVOK 17/16 Q1016 NOSIG
Conditions at: LWSK (SKOPJE/PETROVAC , MK) observed 0000 UTC 18 June 2019
Temperature: 17.0°C (63°F)
Dewpoint: 16.0°C (61°F) [RH = 94%]
Pressure (altimeter): 30.00 inches Hg (1016.0 mb)
Winds: calm
Visibility: 6 or more miles (10+ km)
Ceiling: ceiling and visibility are OK
Clouds: unknown
Weather: no significant weather observed at this time

METAR text: LWSK 172330Z 00000KT CAVOK 17/16 Q1017 NOSIG
Conditions at: LWSK (SKOPJE/PETROVAC , MK) observed 2330 UTC 17 June 2019
Temperature: 17.0°C (63°F)
Dewpoint: 16.0°C (61°F) [RH = 94%]
Pressure (altimeter): 30.03 inches Hg (1017.0 mb)
Winds: calm
Visibility: 6 or more miles (10+ km)
Ceiling: ceiling and visibility are OK
Clouds: unknown
Weather: no significant weather observed at this time

METAR text: LWSK 172300Z 00000KT 9999 OVC070 17/16 Q1017 NOSIG
Conditions at: LWSK (SKOPJE/PETROVAC , MK) observed 2300 UTC 17 June 2019
Temperature: 17.0°C (63°F)
Dewpoint: 16.0°C (61°F) [RH = 94%]
Pressure (altimeter): 30.03 inches Hg (1017.0 mb)
Winds: calm
Visibility: 6 or more miles (10+ km)
Ceiling: 7000 feet AGL
Clouds: overcast cloud deck at 7000 feet AGL
Weather: no significant weather observed at this time

METAR text: LWSK 172230Z 00000KT CAVOK 18/17 Q1017 NOSIG
Conditions at: LWSK (SKOPJE/PETROVAC , MK) observed 2230 UTC 17 June 2019
Temperature: 18.0°C (64°F)
Dewpoint: 17.0°C (63°F) [RH = 94%]
Pressure (altimeter): 30.03 inches Hg (1017.0 mb)
Winds: calm
Visibility: 6 or more miles (10+ km)
Ceiling: ceiling and visibility are OK
Clouds: unknown
Weather: no significant weather observed at this time

METAR text: LWSK 172200Z 00000KT CAVOK 18/17 Q1017 NOSIG
Conditions at: LWSK (SKOPJE/PETROVAC , MK) observed 2200 UTC 17 June 2019
Temperature: 18.0°C (64°F)
Dewpoint: 17.0°C (63°F) [RH = 94%]
Pressure (altimeter): 30.03 inches Hg (1017.0 mb)
Winds: calm
Visibility: 6 or more miles (10+ km)
Ceiling: ceiling and visibility are OK
Clouds: unknown
Weather: no significant weather observed at this time

METAR text: LWSK 172130Z 13002KT CAVOK 18/17 Q1017 NOSIG
Conditions at: LWSK (SKOPJE/PETROVAC , MK) observed 2130 UTC 17 June 2019
Temperature: 18.0°C (64°F)
Dewpoint: 17.0°C (63°F) [RH = 94%]
Pressure (altimeter): 30.03 inches Hg (1017.0 mb)
Winds: from the SE (130 degrees) at 2 MPH (2 knots; 1.0 m/s)
Visibility: 6 or more miles (10+ km)
Ceiling: ceiling and visibility are OK
Clouds: unknown
Weather: no significant weather observed at this time

METAR text: LWSK 172100Z 06002KT CAVOK 18/17 Q1017 NOSIG
Conditions at: LWSK (SKOPJE/PETROVAC , MK) observed 2100 UTC 17 June 2019
Temperature: 18.0°C (64°F)
Dewpoint: 17.0°C (63°F) [RH = 94%]
Pressure (altimeter): 30.03 inches Hg (1017.0 mb)
Winds: from the ENE (60 degrees) at 2 MPH (2 knots; 1.0 m/s)
Visibility: 6 or more miles (10+ km)
Ceiling: ceiling and visibility are OK
Clouds: unknown
Weather: no significant weather observed at this time

METAR text: LWSK 172030Z 04002KT 9999 FEW050 19/18 Q1017 NOSIG
Conditions at: LWSK (SKOPJE/PETROVAC , MK) observed 2030 UTC 17 June 2019
Temperature: 19.0°C (66°F)
Dewpoint: 18.0°C (64°F) [RH = 94%]
Pressure (altimeter): 30.03 inches Hg (1017.0 mb)
Winds: from the NE (40 degrees) at 2 MPH (2 knots; 1.0 m/s)
Visibility: 6 or more miles (10+ km)
Ceiling: at least 12,000 feet AGL
Clouds: few clouds at 5000 feet AGL
Weather: no significant weather observed at this time

METAR text: LWSK 172000Z 00000KT 9999 FEW050 18/18 Q1017 NOSIG
Conditions at: LWSK (SKOPJE/PETROVAC , MK) observed 2000 UTC 17 June 2019
Temperature: 18.0°C (64°F)
Dewpoint: 18.0°C (64°F) [RH = 100%]
Pressure (altimeter): 30.03 inches Hg (1017.0 mb)
Winds: calm
Visibility: 6 or more miles (10+ km)
Ceiling: at least 12,000 feet AGL
Clouds: few clouds at 5000 feet AGL
Weather: no significant weather observed at this time

METAR text: LWSK 171930Z 00000KT 9999 FEW050 BKN100 18/17 Q1017 NOSIG
Conditions at: LWSK (SKOPJE/PETROVAC , MK) observed 1930 UTC 17 June 2019
Temperature: 18.0°C (64°F)
Dewpoint: 17.0°C (63°F) [RH = 94%]
Pressure (altimeter): 30.03 inches Hg (1017.0 mb)
Winds: calm
Visibility: 6 or more miles (10+ km)
Ceiling: 10000 feet AGL
Clouds: few clouds at 5000 feet AGL
broken clouds at 10000 feet AGL
Weather: no significant weather observed at this time

METAR text: LWSK 171900Z 00000KT 9999 FEW050 BKN100 19/17 Q1017 NOSIG
Conditions at: LWSK (SKOPJE/PETROVAC , MK) observed 1900 UTC 17 June 2019
Temperature: 19.0°C (66°F)
Dewpoint: 17.0°C (63°F) [RH = 88%]
Pressure (altimeter): 30.03 inches Hg (1017.0 mb)
Winds: calm
Visibility: 6 or more miles (10+ km)
Ceiling: 10000 feet AGL
Clouds: few clouds at 5000 feet AGL
broken clouds at 10000 feet AGL
Weather: no significant weather observed at this time

METAR text: LWSK 171830Z 01002KT 9999 FEW050 19/17 Q1017 NOSIG
Conditions at: LWSK (SKOPJE/PETROVAC , MK) observed 1830 UTC 17 June 2019
Temperature: 19.0°C (66°F)
Dewpoint: 17.0°C (63°F) [RH = 88%]
Pressure (altimeter): 30.03 inches Hg (1017.0 mb)
Winds: from the N (10 degrees) at 2 MPH (2 knots; 1.0 m/s)
Visibility: 6 or more miles (10+ km)
Ceiling: at least 12,000 feet AGL
Clouds: few clouds at 5000 feet AGL
Weather: no significant weather observed at this time

METAR text: LWSK 171800Z 36003KT 9999 FEW050 BKN100 19/18 Q1017 NOSIG
Conditions at: LWSK (SKOPJE/PETROVAC , MK) observed 1800 UTC 17 June 2019
Temperature: 19.0°C (66°F)
Dewpoint: 18.0°C (64°F) [RH = 94%]
Pressure (altimeter): 30.03 inches Hg (1017.0 mb)
Winds: from the N (360 degrees) at 3 MPH (3 knots; 1.5 m/s)
Visibility: 6 or more miles (10+ km)
Ceiling: 10000 feet AGL
Clouds: few clouds at 5000 feet AGL
broken clouds at 10000 feet AGL
Weather: no significant weather observed at this time

METAR text: LWSK 171730Z 04003KT 9999 FEW050 BKN100 19/18 Q1016 NOSIG
Conditions at: LWSK (SKOPJE/PETROVAC , MK) observed 1730 UTC 17 June 2019
Temperature: 19.0°C (66°F)
Dewpoint: 18.0°C (64°F) [RH = 94%]
Pressure (altimeter): 30.00 inches Hg (1016.0 mb)
Winds: from the NE (40 degrees) at 3 MPH (3 knots; 1.5 m/s)
Visibility: 6 or more miles (10+ km)
Ceiling: 10000 feet AGL
Clouds: few clouds at 5000 feet AGL
broken clouds at 10000 feet AGL
Weather: no significant weather observed at this time

METAR text: LWSK 171700Z 03002KT 9999 -RA FEW050 BKN100 19/18 Q1016 NOSIG
Conditions at: LWSK (SKOPJE/PETROVAC , MK) observed 1700 UTC 17 June 2019
Temperature: 19.0°C (66°F)
Dewpoint: 18.0°C (64°F) [RH = 94%]
Pressure (altimeter): 30.00 inches Hg (1016.0 mb)
Winds: from the NNE (30 degrees) at 2 MPH (2 knots; 1.0 m/s)
Visibility: 6 or more miles (10+ km)
Ceiling: 10000 feet AGL
Clouds: few clouds at 5000 feet AGL
broken clouds at 10000 feet AGL
Weather: -RA  (light rain)

METAR text: LWSK 171630Z 30003KT 9999 -RA FEW050 BKN100 18/18 Q1016 NOSIG
Conditions at: LWSK (SKOPJE/PETROVAC , MK) observed 1630 UTC 17 June 2019
Temperature: 18.0°C (64°F)
Dewpoint: 18.0°C (64°F) [RH = 100%]
Pressure (altimeter): 30.00 inches Hg (1016.0 mb)
Winds: from the WNW (300 degrees) at 3 MPH (3 knots; 1.5 m/s)
Visibility: 6 or more miles (10+ km)
Ceiling: 10000 feet AGL
Clouds: few clouds at 5000 feet AGL
broken clouds at 10000 feet AGL
Weather: -RA  (light rain)

METAR text: LWSK 171600Z 19001KT 9999 RA FEW050 OVC100 19/18 Q1017 NOSIG
Conditions at: LWSK (SKOPJE/PETROVAC , MK) observed 1600 UTC 17 June 2019
Temperature: 19.0°C (66°F)
Dewpoint: 18.0°C (64°F) [RH = 94%]
Pressure (altimeter): 30.03 inches Hg (1017.0 mb)
Winds: from the S (190 degrees) at 1 MPH (1 knots; 0.5 m/s)
Visibility: 6 or more miles (10+ km)
Ceiling: 10000 feet AGL
Clouds: few clouds at 5000 feet AGL
overcast cloud deck at 10000 feet AGL
Weather: RA  (moderate rain)

METAR text: LWSK 171530Z 12004KT 9999 RA FEW040CB OVC050 19/18 Q1017 NOSIG
Conditions at: LWSK (SKOPJE/PETROVAC , MK) observed 1530 UTC 17 June 2019
Temperature: 19.0°C (66°F)
Dewpoint: 18.0°C (64°F) [RH = 94%]
Pressure (altimeter): 30.03 inches Hg (1017.0 mb)
Winds: from the ESE (120 degrees) at 5 MPH (4 knots; 2.1 m/s)
Visibility: 6 or more miles (10+ km)
Ceiling: 5000 feet AGL
Clouds: few clouds at 4000 feet AGL
overcast cloud deck at 5000 feet AGL
Weather: RA  (moderate rain)

METAR text: LWSK 171500Z VRB02KT 9999 TSRA SCT040CB OVC050 19/17 Q1017 NOSIG
Conditions at: LWSK (SKOPJE/PETROVAC , MK) observed 1500 UTC 17 June 2019
Temperature: 19.0°C (66°F)
Dewpoint: 17.0°C (63°F) [RH = 88%]
Pressure (altimeter): 30.03 inches Hg (1017.0 mb)
Winds: variable direction winds at 2 MPH (2 knots; 1.0 m/s)
Visibility: 6 or more miles (10+ km)
Ceiling: 5000 feet AGL
Clouds: scattered clouds at 4000 feet AGL
overcast cloud deck at 5000 feet AGL
Weather: TSRA  (rain associated with thunderstorm(s))

METAR text: LWSK 171430Z 35007KT 300V050 9999 +TSRA SCT040CB OVC050 19/17 Q1016 NOSIG
Conditions at: LWSK (SKOPJE/PETROVAC , MK) observed 1430 UTC 17 June 2019
Temperature: 19.0°C (66°F)
Dewpoint: 17.0°C (63°F) [RH = 88%]
Pressure (altimeter): 30.00 inches Hg (1016.0 mb)
Winds: from the N (350 degrees) at 8 MPH (7 knots; 3.6 m/s)
Visibility: 6 or more miles (10+ km)
Ceiling: 5000 feet AGL
Clouds: scattered clouds at 4000 feet AGL
overcast cloud deck at 5000 feet AGL
Weather: +TSRA  (heavy rain associated with thunderstorm(s))

METAR text: LWSK 171400Z 04013KT 9999 -TSRA SCT040CB BKN060 22/16 Q1017 NOSIG
Conditions at: LWSK (SKOPJE/PETROVAC , MK) observed 1400 UTC 17 June 2019
Temperature: 22.0°C (72°F)
Dewpoint: 16.0°C (61°F) [RH = 69%]
Pressure (altimeter): 30.03 inches Hg (1017.0 mb)
Winds: from the NE (40 degrees) at 15 MPH (13 knots; 6.7 m/s)
Visibility: 6 or more miles (10+ km)
Ceiling: 6000 feet AGL
Clouds: scattered clouds at 4000 feet AGL
broken clouds at 6000 feet AGL
Weather: -TSRA  (light rain associated with thunderstorm(s))

METAR text: LWSK 171330Z 04013KT 9999 TS SCT050CB BKN060 23/15 Q1015 NOSIG
Conditions at: LWSK (SKOPJE/PETROVAC , MK) observed 1330 UTC 17 June 2019
Temperature: 23.0°C (73°F)
Dewpoint: 15.0°C (59°F) [RH = 61%]
Pressure (altimeter): 29.97 inches Hg (1015.0 mb)
Winds: from the NE (40 degrees) at 15 MPH (13 knots; 6.7 m/s)
Visibility: 6 or more miles (10+ km)
Ceiling: 6000 feet AGL
Clouds: scattered clouds at 5000 feet AGL
broken clouds at 6000 feet AGL
Weather: TS  (thunderstorm)

METAR text: LWSK 171300Z 02004KT 9999 TS SCT050CB BKN060 25/17 Q1013 NOSIG
Conditions at: LWSK (SKOPJE/PETROVAC , MK) observed 1300 UTC 17 June 2019
Temperature: 25.0°C (77°F)
Dewpoint: 17.0°C (63°F) [RH = 61%]
Pressure (altimeter): 29.91 inches Hg (1013.0 mb)
Winds: from the NNE (20 degrees) at 5 MPH (4 knots; 2.1 m/s)
Visibility: 6 or more miles (10+ km)
Ceiling: 6000 feet AGL
Clouds: scattered clouds at 5000 feet AGL
broken clouds at 6000 feet AGL
Weather: TS  (thunderstorm)

METAR text: LWSK 171230Z 34009KT 9999 -TSRA SCT050CB 27/17 Q1013 TEMPO VRB15G25KT 5000 TSRA SCT033CB BKN040
Conditions at: LWSK (SKOPJE/PETROVAC , MK) observed 1230 UTC 17 June 2019
Temperature: 27.0°C (81°F)
Dewpoint: 17.0°C (63°F) [RH = 54%]
Pressure (altimeter): 29.91 inches Hg (1013.0 mb)
Winds: from the NNW (340 degrees) at 10 MPH (9 knots; 4.6 m/s)
Visibility: 6 or more miles (10+ km)
Ceiling: at least 12,000 feet AGL
Clouds: scattered clouds at 5000 feet AGL
Weather: -TSRA  (light rain associated with thunderstorm(s))

METAR text: LWSK 171200Z 21004KT 9999 FEW060TCU 31/15 Q1013 NOSIG
Conditions at: LWSK (SKOPJE/PETROVAC , MK) observed 1200 UTC 17 June 2019
Temperature: 31.0°C (88°F)
Dewpoint: 15.0°C (59°F) [RH = 38%]
Pressure (altimeter): 29.91 inches Hg (1013.0 mb)
Winds: from the SSW (210 degrees) at 5 MPH (4 knots; 2.1 m/s)
Visibility: 6 or more miles (10+ km)
Ceiling: at least 12,000 feet AGL
Clouds: few clouds at 6000 feet AGL
Weather: no significant weather observed at this time

METAR text: LWSK 171130Z VRB03KT 9999 FEW060TCU 30/16 Q1013 NOSIG
Conditions at: LWSK (SKOPJE/PETROVAC , MK) observed 1130 UTC 17 June 2019
Temperature: 30.0°C (86°F)
Dewpoint: 16.0°C (61°F) [RH = 43%]
Pressure (altimeter): 29.91 inches Hg (1013.0 mb)
Winds: variable direction winds at 3 MPH (3 knots; 1.5 m/s)
Visibility: 6 or more miles (10+ km)
Ceiling: at least 12,000 feet AGL
Clouds: few clouds at 6000 feet AGL
Weather: no significant weather observed at this time

METAR text: LWSK 171100Z VRB03KT 9999 FEW060 30/17 Q1013 NOSIG
Conditions at: LWSK (SKOPJE/PETROVAC , MK) observed 1100 UTC 17 June 2019
Temperature: 30.0°C (86°F)
Dewpoint: 17.0°C (63°F) [RH = 46%]
Pressure (altimeter): 29.91 inches Hg (1013.0 mb)
Winds: variable direction winds at 3 MPH (3 knots; 1.5 m/s)
Visibility: 6 or more miles (10+ km)
Ceiling: at least 12,000 feet AGL
Clouds: few clouds at 6000 feet AGL
Weather: no significant weather observed at this time

METAR text: LWSK 171030Z VRB03KT 9999 FEW060 29/17 Q1014 NOSIG
Conditions at: LWSK (SKOPJE/PETROVAC , MK) observed 1030 UTC 17 June 2019
Temperature: 29.0°C (84°F)
Dewpoint: 17.0°C (63°F) [RH = 48%]
Pressure (altimeter): 29.94 inches Hg (1014.0 mb)
Winds: variable direction winds at 3 MPH (3 knots; 1.5 m/s)
Visibility: 6 or more miles (10+ km)
Ceiling: at least 12,000 feet AGL
Clouds: few clouds at 6000 feet AGL
Weather: no significant weather observed at this time

METAR text: LWSK 171000Z VRB03KT 9999 FEW060 28/18 Q1014 NOSIG
Conditions at: LWSK (SKOPJE/PETROVAC , MK) observed 1000 UTC 17 June 2019
Temperature: 28.0°C (82°F)
Dewpoint: 18.0°C (64°F) [RH = 55%]
Pressure (altimeter): 29.94 inches Hg (1014.0 mb)
Winds: variable direction winds at 3 MPH (3 knots; 1.5 m/s)
Visibility: 6 or more miles (10+ km)
Ceiling: at least 12,000 feet AGL
Clouds: few clouds at 6000 feet AGL
Weather: no significant weather observed at this time

METAR text: LWSK 170930Z VRB02KT 9999 FEW060 28/17 Q1015 NOSIG
Conditions at: LWSK (SKOPJE/PETROVAC , MK) observed 0930 UTC 17 June 2019
Temperature: 28.0°C (82°F)
Dewpoint: 17.0°C (63°F) [RH = 51%]
Pressure (altimeter): 29.97 inches Hg (1015.0 mb)
Winds: variable direction winds at 2 MPH (2 knots; 1.0 m/s)
Visibility: 6 or more miles (10+ km)
Ceiling: at least 12,000 feet AGL
Clouds: few clouds at 6000 feet AGL
Weather: no significant weather observed at this time

METAR text: LWSK 170900Z 26001KT 9999 FEW060 28/17 Q1015 NOSIG
Conditions at: LWSK (SKOPJE/PETROVAC , MK) observed 0900 UTC 17 June 2019
Temperature: 28.0°C (82°F)
Dewpoint: 17.0°C (63°F) [RH = 51%]
Pressure (altimeter): 29.97 inches Hg (1015.0 mb)
Winds: from the W (260 degrees) at 1 MPH (1 knots; 0.5 m/s)
Visibility: 6 or more miles (10+ km)
Ceiling: at least 12,000 feet AGL
Clouds: few clouds at 6000 feet AGL
Weather: no significant weather observed at this time

METAR text: LWSK 170830Z VRB02KT 9999 FEW060 27/17 Q1015 NOSIG
Conditions at: LWSK (SKOPJE/PETROVAC , MK) observed 0830 UTC 17 June 2019
Temperature: 27.0°C (81°F)
Dewpoint: 17.0°C (63°F) [RH = 54%]
Pressure (altimeter): 29.97 inches Hg (1015.0 mb)
Winds: variable direction winds at 2 MPH (2 knots; 1.0 m/s)
Visibility: 6 or more miles (10+ km)
Ceiling: at least 12,000 feet AGL
Clouds: few clouds at 6000 feet AGL
Weather: no significant weather observed at this time

METAR text: LWSK 170800Z VRB02KT 9999 FEW060 25/17 Q1015 NOSIG
Conditions at: LWSK (SKOPJE/PETROVAC , MK) observed 0800 UTC 17 June 2019
Temperature: 25.0°C (77°F)
Dewpoint: 17.0°C (63°F) [RH = 61%]
Pressure (altimeter): 29.97 inches Hg (1015.0 mb)
Winds: variable direction winds at 2 MPH (2 knots; 1.0 m/s)
Visibility: 6 or more miles (10+ km)
Ceiling: at least 12,000 feet AGL
Clouds: few clouds at 6000 feet AGL
Weather: no significant weather observed at this time

METAR text: LWSK 170730Z 29003KT 9999 FEW060 24/17 Q1016 NOSIG
Conditions at: LWSK (SKOPJE/PETROVAC , MK) observed 0730 UTC 17 June 2019
Temperature: 24.0°C (75°F)
Dewpoint: 17.0°C (63°F) [RH = 65%]
Pressure (altimeter): 30.00 inches Hg (1016.0 mb)
Winds: from the WNW (290 degrees) at 3 MPH (3 knots; 1.5 m/s)
Visibility: 6 or more miles (10+ km)
Ceiling: at least 12,000 feet AGL
Clouds: few clouds at 6000 feet AGL
Weather: no significant weather observed at this time

METAR text: LWSK 170700Z 26002KT 9999 FEW060 23/17 Q1016 NOSIG
Conditions at: LWSK (SKOPJE/PETROVAC , MK) observed 0700 UTC 17 June 2019
Temperature: 23.0°C (73°F)
Dewpoint: 17.0°C (63°F) [RH = 69%]
Pressure (altimeter): 30.00 inches Hg (1016.0 mb)
Winds: from the W (260 degrees) at 2 MPH (2 knots; 1.0 m/s)
Visibility: 6 or more miles (10+ km)
Ceiling: at least 12,000 feet AGL
Clouds: few clouds at 6000 feet AGL
Weather: no significant weather observed at this time

METAR text: LWSK 170630Z VRB01KT 9999 FEW060 23/17 Q1016 NOSIG
Conditions at: LWSK (SKOPJE/PETROVAC , MK) observed 0630 UTC 17 June 2019
Temperature: 23.0°C (73°F)
Dewpoint: 17.0°C (63°F) [RH = 69%]
Pressure (altimeter): 30.00 inches Hg (1016.0 mb)
Winds: variable direction winds at 1 MPH (1 knots; 0.5 m/s)
Visibility: 6 or more miles (10+ km)
Ceiling: at least 12,000 feet AGL
Clouds: few clouds at 6000 feet AGL
Weather: no significant weather observed at this time

METAR text: LWSK 170600Z 00000KT 9999 FEW060 21/17 Q1016 NOSIG
Conditions at: LWSK (SKOPJE/PETROVAC , MK) observed 0600 UTC 17 June 2019
Temperature: 21.0°C (70°F)
Dewpoint: 17.0°C (63°F) [RH = 78%]
Pressure (altimeter): 30.00 inches Hg (1016.0 mb)
Winds: calm
Visibility: 6 or more miles (10+ km)
Ceiling: at least 12,000 feet AGL
Clouds: few clouds at 6000 feet AGL
Weather: no significant weather observed at this time

METAR text: LWSK 170530Z VRB01KT 9999 FEW070 20/17 Q1015 NOSIG
Conditions at: LWSK (SKOPJE/PETROVAC , MK) observed 0530 UTC 17 June 2019
Temperature: 20.0°C (68°F)
Dewpoint: 17.0°C (63°F) [RH = 83%]
Pressure (altimeter): 29.97 inches Hg (1015.0 mb)
Winds: variable direction winds at 1 MPH (1 knots; 0.5 m/s)
Visibility: 6 or more miles (10+ km)
Ceiling: at least 12,000 feet AGL
Clouds: few clouds at 7000 feet AGL
Weather: no significant weather observed at this time

METAR text: LWSK 170500Z 04001KT 9999 FEW080 19/17 Q1015 NOSIG
Conditions at: LWSK (SKOPJE/PETROVAC , MK) observed 0500 UTC 17 June 2019
Temperature: 19.0°C (66°F)
Dewpoint: 17.0°C (63°F) [RH = 88%]
Pressure (altimeter): 29.97 inches Hg (1015.0 mb)
Winds: from the NE (40 degrees) at 1 MPH (1 knots; 0.5 m/s)
Visibility: 6 or more miles (10+ km)
Ceiling: at least 12,000 feet AGL
Clouds: few clouds at 8000 feet AGL
Weather: no significant weather observed at this time

METAR text: LWSK 170430Z 00000KT CAVOK 18/16 Q1015 NOSIG
Conditions at: LWSK (SKOPJE/PETROVAC , MK) observed 0430 UTC 17 June 2019
Temperature: 18.0°C (64°F)
Dewpoint: 16.0°C (61°F) [RH = 88%]
Pressure (altimeter): 29.97 inches Hg (1015.0 mb)
Winds: calm
Visibility: 6 or more miles (10+ km)
Ceiling: ceiling and visibility are OK
Clouds: unknown
Weather: no significant weather observed at this time

METAR text: LWSK 170400Z 06002KT CAVOK 18/16 Q1015 NOSIG
Conditions at: LWSK (SKOPJE/PETROVAC , MK) observed 0400 UTC 17 June 2019
Temperature: 18.0°C (64°F)
Dewpoint: 16.0°C (61°F) [RH = 88%]
Pressure (altimeter): 29.97 inches Hg (1015.0 mb)
Winds: from the ENE (60 degrees) at 2 MPH (2 knots; 1.0 m/s)
Visibility: 6 or more miles (10+ km)
Ceiling: ceiling and visibility are OK
Clouds: unknown
Weather: no significant weather observed at this time

METAR text: LWSK 170330Z VRB01KT CAVOK 17/15 Q1015 NOSIG
Conditions at: LWSK (SKOPJE/PETROVAC , MK) observed 0330 UTC 17 June 2019
Temperature: 17.0°C (63°F)
Dewpoint: 15.0°C (59°F) [RH = 88%]
Pressure (altimeter): 29.97 inches Hg (1015.0 mb)
Winds: variable direction winds at 1 MPH (1 knots; 0.5 m/s)
Visibility: 6 or more miles (10+ km)
Ceiling: ceiling and visibility are OK
Clouds: unknown
Weather: no significant weather observed at this time

METAR text: LWSK 170300Z 00000KT CAVOK 17/15 Q1015 NOSIG
Conditions at: LWSK (SKOPJE/PETROVAC , MK) observed 0300 UTC 17 June 2019
Temperature: 17.0°C (63°F)
Dewpoint: 15.0°C (59°F) [RH = 88%]
Pressure (altimeter): 29.97 inches Hg (1015.0 mb)
Winds: calm
Visibility: 6 or more miles (10+ km)
Ceiling: ceiling and visibility are OK
Clouds: unknown
Weather: no significant weather observed at this time

METAR text: LWSK 170230Z 14002KT 9999 SCT100 17/15 Q1014 NOSIG
Conditions at: LWSK (SKOPJE/PETROVAC , MK) observed 0230 UTC 17 June 2019
Temperature: 17.0°C (63°F)
Dewpoint: 15.0°C (59°F) [RH = 88%]
Pressure (altimeter): 29.94 inches Hg (1014.0 mb)
Winds: from the SE (140 degrees) at 2 MPH (2 knots; 1.0 m/s)
Visibility: 6 or more miles (10+ km)
Ceiling: at least 12,000 feet AGL
Clouds: scattered clouds at 10000 feet AGL
Weather: no significant weather observed at this time

METAR text: LWSK 170200Z 11002KT 9999 SCT100 18/17 Q1014 NOSIG
Conditions at: LWSK (SKOPJE/PETROVAC , MK) observed 0200 UTC 17 June 2019
Temperature: 18.0°C (64°F)
Dewpoint: 17.0°C (63°F) [RH = 94%]
Pressure (altimeter): 29.94 inches Hg (1014.0 mb)
Winds: from the ESE (110 degrees) at 2 MPH (2 knots; 1.0 m/s)
Visibility: 6 or more miles (10+ km)
Ceiling: at least 12,000 feet AGL
Clouds: scattered clouds at 10000 feet AGL
Weather: no significant weather observed at this time

METAR text: LWSK 170130Z 11002KT 9999 SCT100 18/17 Q1014 NOSIG
Conditions at: LWSK (SKOPJE/PETROVAC , MK) observed 0130 UTC 17 June 2019
Temperature: 18.0°C (64°F)
Dewpoint: 17.0°C (63°F) [RH = 94%]
Pressure (altimeter): 29.94 inches Hg (1014.0 mb)
Winds: from the ESE (110 degrees) at 2 MPH (2 knots; 1.0 m/s)
Visibility: 6 or more miles (10+ km)
Ceiling: at least 12,000 feet AGL
Clouds: scattered clouds at 10000 feet AGL
Weather: no significant weather observed at this time

METAR text: LWSK 170100Z 08002KT 9999 SCT100 19/17 Q1014 NOSIG
Conditions at: LWSK (SKOPJE/PETROVAC , MK) observed 0100 UTC 17 June 2019
Temperature: 19.0°C (66°F)
Dewpoint: 17.0°C (63°F) [RH = 88%]
Pressure (altimeter): 29.94 inches Hg (1014.0 mb)
Winds: from the E (80 degrees) at 2 MPH (2 knots; 1.0 m/s)
Visibility: 6 or more miles (10+ km)
Ceiling: at least 12,000 feet AGL
Clouds: scattered clouds at 10000 feet AGL
Weather: no significant weather observed at this time

METAR text: LWSK 170030Z 08002KT 9999 FEW040 BKN100 19/17 Q1014 NOSIG
Conditions at: LWSK (SKOPJE/PETROVAC , MK) observed 0030 UTC 17 June 2019
Temperature: 19.0°C (66°F)
Dewpoint: 17.0°C (63°F) [RH = 88%]
Pressure (altimeter): 29.94 inches Hg (1014.0 mb)
Winds: from the E (80 degrees) at 2 MPH (2 knots; 1.0 m/s)
Visibility: 6 or more miles (10+ km)
Ceiling: 10000 feet AGL
Clouds: few clouds at 4000 feet AGL
broken clouds at 10000 feet AGL
Weather: no significant weather observed at this time

METAR text: LWSK 170000Z VRB01KT 9999 FEW040 BKN100 20/17 Q1024 NOSIG
Conditions at: LWSK (SKOPJE/PETROVAC , MK) observed 0000 UTC 17 June 2019
Temperature: 20.0°C (68°F)
Dewpoint: 17.0°C (63°F) [RH = 83%]
Pressure (altimeter): 30.24 inches Hg (1024.0 mb)
Winds: variable direction winds at 1 MPH (1 knots; 0.5 m/s)
Visibility: 6 or more miles (10+ km)
Ceiling: 10000 feet AGL
Clouds: few clouds at 4000 feet AGL
broken clouds at 10000 feet AGL
Weather: no significant weather observed at this time

METAR text: LWSK 162330Z VRB01KT 9999 FEW040 BKN100 20/17 Q1024 NOSIG
Conditions at: LWSK (SKOPJE/PETROVAC , MK) observed 2330 UTC 16 June 2019
Temperature: 20.0°C (68°F)
Dewpoint: 17.0°C (63°F) [RH = 83%]
Pressure (altimeter): 30.24 inches Hg (1024.0 mb)
Winds: variable direction winds at 1 MPH (1 knots; 0.5 m/s)
Visibility: 6 or more miles (10+ km)
Ceiling: 10000 feet AGL
Clouds: few clouds at 4000 feet AGL
broken clouds at 10000 feet AGL
Weather: no significant weather observed at this time

Forecast for: LWSK (SKOPJE/PETROVAC , MK)
Text: TAF LWSK 180830Z 1809/1909 VRB02KT 9999 FEW030
Forecast period: 0900 UTC 18 June 2019 to 0900 UTC 19 June 2019
Forecast type: FROM: standard forecast or significant change
Winds: variable direction winds at 2 MPH (2 knots; 1.0 m/s)
Visibility: 6 or more miles 10+ km)
Ceiling: at least 12,000 feet AGL
Clouds: few clouds at 3000 feet AGL
Weather: no significant weather forecast for this period
Text: TEMPO 1811/1820 VRB20KT TSRA FEW033CB BKN040
Forecast period: 1100 to 2000 UTC 18 June 2019
Forecast type: TEMPORARY: The following changes expected for less than half the time period
Winds: variable direction winds at 23 MPH (20 knots; 10.3 m/s)
Visibility: missing
Ceiling: 4000 feet AGL
Clouds: few clouds at 3300 feet AGL
broken clouds at 4000 feet AGL
Weather: TSRA  (rain associated with thunderstorm(s))